Grafton, ND

4:42 AM CST on February 22, 2017 (GMT -0600)
Grafton Municipal

Weather History for KGAF - April, 2013

Change the Weather History Date:

Friday, April 19, 2013

  Actual Average Record
Temperature  
Mean Temperature 28 °F -  
Max Temperature 32 °F 58 °F 90 °F (1987)
Min Temperature 24 °F 34 °F 19 °F (1988)
Degree Days  
Heating Degree Days 37    
Moisture  
Dew Point 20 °F    
Average Humidity 71    
Maximum Humidity 80    
Minimum Humidity 60    
Precipitation  
Precipitation 0.00 in - - ()
Sea Level Pressure  
Sea Level Pressure 29.96 in    
Wind  
Wind Speed 18 mph (NNW)    
Max Wind Speed 29 mph    
Max Gust Speed 38 mph    
Visibility 10 miles    
Events      
Averages and records for this station are not official NWS values.
T = Trace of Precipitation, MM = Missing Value Source: NWS Daily Summary

Daily Weather History Graph

Daily Weather History Graph

Search for Another Location

Airport or City:

Trip Planner

Search our weather history database for the weather conditions in past years. The results will help you decide how hot, cold, wet, or windy it might be!

Date:

Astronomy

Apr. 19, 2013 Rise Set
Actual Time 6:31 AM CDT 8:26 PM CDT
Civil Twilight 5:57 AM CDT 9:00 PM CDT
Nautical Twilight 5:16 AM CDT 9:41 PM CDT
Astronomical Twilight 4:31 AM CDT 10:27 PM CDT
Moon 1:44 PM CDT (4/19) 3:17 AM CDT (4/19)
Length of Visible Light 15h 02m
Length of Day
13h 55m
First Quarter, 62% of the Moon is Illuminated
Apr 19
First Quarter
Apr 25
Full
May 2
Last Quarter
May 9
New
May 17
First Quarter

Hourly Weather History & Observations

Time (CDT) Temp. Windchill Dew Point Humidity Pressure Visibility Wind Dir Wind Speed Gust Speed Precip Events Conditions
12:15 AM 30.2 °F 18.9 °F 21.2 °F 69% 29.89 in 10.0 mi North 16.1 mph 25.3 mph N/A   Clear
12:35 AM 30.2 °F 18.5 °F 23.0 °F 75% 29.88 in 10.0 mi North 17.3 mph 21.9 mph N/A   Clear
12:55 AM 28.4 °F 16.6 °F 21.2 °F 74% 29.88 in 10.0 mi North 16.1 mph - N/A   Clear
1:15 AM 28.4 °F 16.2 °F 21.2 °F 74% 29.88 in 10.0 mi North 17.3 mph 23.0 mph N/A   Clear
1:35 AM 28.4 °F 15.8 °F 21.2 °F 74% 29.88 in 10.0 mi North 18.4 mph 21.9 mph N/A   Clear
1:55 AM 28.4 °F 16.2 °F 21.2 °F 74% 29.88 in 10.0 mi North 17.3 mph 21.9 mph N/A   Clear
2:15 AM 28.4 °F 15.8 °F 21.2 °F 74% 29.87 in 10.0 mi North 18.4 mph - N/A   Clear
2:35 AM 28.4 °F 16.2 °F 21.2 °F 74% 29.87 in 10.0 mi North 17.3 mph 23.0 mph N/A   Clear
2:55 AM 26.6 °F 14.3 °F 21.2 °F 80% 29.87 in 10.0 mi North 16.1 mph 21.9 mph N/A   Clear
3:15 AM 26.6 °F 13.8 °F 21.2 °F 80% 29.87 in 10.0 mi North 17.3 mph 23.0 mph N/A   Clear
3:35 AM 26.6 °F 14.3 °F 19.4 °F 74% 29.87 in 10.0 mi North 16.1 mph - N/A   Clear
3:55 AM 26.6 °F 14.3 °F 19.4 °F 74% 29.87 in 10.0 mi North 16.1 mph - N/A   Clear
4:15 AM 26.6 °F 14.7 °F 19.4 °F 74% 29.87 in 10.0 mi North 15.0 mph - N/A   Clear
4:35 AM 26.6 °F 14.7 °F 19.4 °F 74% 29.87 in 10.0 mi North 15.0 mph - N/A   Clear
4:55 AM 26.6 °F 13.8 °F 19.4 °F 74% 29.88 in 10.0 mi North 17.3 mph 20.7 mph N/A   Clear
5:15 AM 26.6 °F 14.3 °F 19.4 °F 74% 29.88 in 10.0 mi North 16.1 mph 21.9 mph N/A   Clear
5:35 AM 24.8 °F 11.9 °F 19.4 °F 80% 29.89 in 10.0 mi North 16.1 mph 21.9 mph N/A   Clear
5:55 AM 24.8 °F 12.4 °F 19.4 °F 80% 29.89 in 10.0 mi North 15.0 mph - N/A   Clear
6:15 AM 24.8 °F 12.4 °F 19.4 °F 80% 29.90 in 10.0 mi North 15.0 mph - N/A   Clear
6:35 AM 24.8 °F 11.5 °F 17.6 °F 74% 29.91 in 10.0 mi North 17.3 mph 21.9 mph N/A   Clear
6:55 AM 24.8 °F 11.5 °F 17.6 °F 74% 29.92 in 10.0 mi North 17.3 mph 23.0 mph N/A   Clear
7:15 AM 24.8 °F 12.4 °F 17.6 °F 74% 29.92 in 10.0 mi North 15.0 mph 20.7 mph N/A   Clear
7:35 AM 24.8 °F 12.4 °F 17.6 °F 74% 29.92 in 10.0 mi North 15.0 mph 20.7 mph N/A   Clear
7:55 AM 24.8 °F 10.7 °F 17.6 °F 74% 29.93 in 10.0 mi North 19.6 mph 23.0 mph N/A   Clear
8:15 AM 24.8 °F 11.5 °F 17.6 °F 74% 29.93 in 10.0 mi North 17.3 mph 26.5 mph N/A   Clear
8:35 AM 26.6 °F 14.3 °F 17.6 °F 69% 29.93 in 10.0 mi North 16.1 mph 26.5 mph N/A   Clear
8:55 AM 26.6 °F 13.1 °F 17.6 °F 69% 29.93 in 10.0 mi North 19.6 mph 28.8 mph N/A   Clear
9:15 AM 26.6 °F 12.7 °F 17.6 °F 69% 29.93 in 10.0 mi North 20.7 mph 28.8 mph N/A   Clear
9:35 AM 28.4 °F 14.1 °F 19.4 °F 69% 29.94 in 10.0 mi North 24.2 mph 29.9 mph N/A   Clear
9:55 AM 28.4 °F 14.1 °F 17.6 °F 64% 29.94 in 10.0 mi North 24.2 mph 29.9 mph N/A   Clear
10:15 AM 28.4 °F 14.1 °F 19.4 °F 69% 29.95 in 10.0 mi North 24.2 mph 29.9 mph N/A   Clear
10:35 AM 28.4 °F 13.8 °F 19.4 °F 69% 29.95 in 10.0 mi North 25.3 mph 29.9 mph N/A   Clear
10:55 AM 28.4 °F 13.8 °F 19.4 °F 69% 29.95 in 10.0 mi North 25.3 mph 32.2 mph N/A   Clear
11:15 AM 28.4 °F 15.1 °F 19.4 °F 69% 29.96 in 10.0 mi North 20.7 mph 27.6 mph N/A   Clear
11:35 AM 30.2 °F 17.1 °F 19.4 °F 64% 29.96 in 10.0 mi North 21.9 mph 28.8 mph N/A   Clear
11:55 AM 30.2 °F 17.8 °F 19.4 °F 64% 29.96 in 10.0 mi North 19.6 mph 27.6 mph N/A   Clear
12:15 PM 32.0 °F 20.1 °F 23.0 °F 69% 29.97 in 10.0 mi North 19.6 mph 27.6 mph N/A   Clear
12:35 PM 32.0 °F 19.5 °F 21.2 °F 64% 29.97 in 10.0 mi North 21.9 mph 28.8 mph N/A   Clear
12:55 PM 32.0 °F 19.5 °F 23.0 °F 69% 29.97 in 10.0 mi North 21.9 mph 29.9 mph N/A   Clear
1:15 PM 32.0 °F 19.2 °F 23.0 °F 69% 29.98 in 10.0 mi NNW 23.0 mph 26.5 mph N/A   Clear
1:35 PM 32.0 °F 19.8 °F 23.0 °F 69% 29.98 in 10.0 mi NNW 20.7 mph 27.6 mph N/A   Clear
1:55 PM 32.0 °F 19.8 °F 23.0 °F 69% 29.98 in 10.0 mi NNW 20.7 mph 31.1 mph N/A   Clear
2:15 PM 32.0 °F 19.5 °F 23.0 °F 69% 29.98 in 10.0 mi NNW 21.9 mph 28.8 mph N/A   Clear
2:35 PM 32.0 °F 19.8 °F 23.0 °F 69% 29.98 in 10.0 mi NNW 20.7 mph 29.9 mph N/A   Clear
2:55 PM 32.0 °F 18.6 °F 21.2 °F 64% 29.98 in 10.0 mi North 25.3 mph 33.4 mph N/A   Clear
3:15 PM 32.0 °F 18.9 °F 23.0 °F 69% 29.98 in 10.0 mi North 24.2 mph 32.2 mph N/A   Clear
3:35 PM 32.0 °F 17.9 °F 21.2 °F 64% 29.99 in 10.0 mi North 28.8 mph 35.7 mph N/A   Clear
3:55 PM 32.0 °F 17.9 °F 19.4 °F 60% 29.99 in 10.0 mi North 28.8 mph 38.0 mph N/A   Clear
4:15 PM 32.0 °F 18.1 °F 21.2 °F 64% 30.00 in 10.0 mi North 27.6 mph 32.2 mph N/A   Scattered Clouds
4:35 PM 32.0 °F 19.2 °F 21.2 °F 64% 30.00 in 10.0 mi North 23.0 mph 32.2 mph N/A   Scattered Clouds
4:55 PM 32.0 °F 18.6 °F 19.4 °F 60% 30.01 in 10.0 mi North 25.3 mph 33.4 mph N/A   Partly Cloudy
5:15 PM 32.0 °F 19.2 °F 19.4 °F 60% 30.01 in 10.0 mi North 23.0 mph 32.2 mph N/A   Clear
5:35 PM 32.0 °F 20.1 °F 23.0 °F 69% 30.02 in 10.0 mi NNW 19.6 mph 29.9 mph N/A   Scattered Clouds
5:55 PM 32.0 °F 19.2 °F 21.2 °F 64% 30.02 in 10.0 mi NNW 23.0 mph 27.6 mph N/A   Mostly Cloudy
6:15 PM 32.0 °F 20.1 °F 23.0 °F 69% 30.02 in 10.0 mi NNW 19.6 mph - N/A   Partly Cloudy
6:35 PM 32.0 °F 19.8 °F 21.2 °F 64% 30.03 in 10.0 mi NNW 20.7 mph 27.6 mph N/A   Partly Cloudy
6:55 PM 32.0 °F 21.2 °F 23.0 °F 69% 30.03 in 10.0 mi North 16.1 mph - N/A   Clear
7:15 PM 32.0 °F 20.5 °F 23.0 °F 69% 30.04 in 10.0 mi NNW 18.4 mph 24.2 mph N/A   Clear
7:35 PM 32.0 °F 20.8 °F 21.2 °F 64% 30.04 in 10.0 mi NNW 17.3 mph 24.2 mph N/A   Clear
7:55 PM 30.2 °F 18.5 °F 19.4 °F 64% 30.04 in 10.0 mi NNW 17.3 mph - N/A   Clear
8:15 PM 30.2 °F 19.3 °F 19.4 °F 64% 30.05 in 10.0 mi NNW 15.0 mph - N/A   Clear
8:35 PM 28.4 °F 18.0 °F 19.4 °F 69% 30.05 in 10.0 mi NNW 12.7 mph 17.3 mph N/A   Clear
8:55 PM 28.4 °F 18.0 °F 21.2 °F 74% 30.06 in 10.0 mi NNW 12.7 mph - N/A   Clear
9:15 PM 26.6 °F 16.8 °F 21.2 °F 80% 30.06 in 10.0 mi NW 10.4 mph - N/A   Clear
9:35 PM 26.6 °F 16.8 °F 21.2 °F 80% 30.06 in 10.0 mi NW 10.4 mph - N/A   Clear
9:55 PM 26.6 °F 16.2 °F 21.2 °F 80% 30.07 in 10.0 mi NW 11.5 mph - N/A   Clear
10:15 PM 26.6 °F 16.8 °F 21.2 °F 80% 30.07 in 10.0 mi NNW 10.4 mph - N/A   Clear
10:35 PM 26.6 °F 16.8 °F 19.4 °F 74% 30.07 in 10.0 mi NNW 10.4 mph - N/A   Clear
10:55 PM 26.6 °F 16.2 °F 19.4 °F 74% 30.08 in 10.0 mi NNW 11.5 mph - N/A   Clear
11:15 PM 24.8 °F 16.1 °F 19.4 °F 80% 30.08 in 10.0 mi NW 8.1 mph - N/A   Clear
11:35 PM 24.8 °F 16.1 °F 19.4 °F 80% 30.08 in 10.0 mi NW 8.1 mph - N/A   Clear
11:55 PM 24.8 °F 16.1 °F 17.6 °F 74% 30.08 in 10.0 mi NW 8.1 mph - N/A   Clear